Tampa, Florida
Traffic Map
Current Weather Conditions
Tampa, Florida
Few Clouds
Few Clouds
81°
Feels Like: 86°
Wind Chill: 81° Ceiling: Unl
Heat Index: 86° Visibility: 10mi
Dew Point: 73° Wind: 0mph
Humidity: 77% Direction: ° ()
Pressure: 29.99in Gusts: 0mph
Raw Report DataKTPA 240753Z 00000KT 10SM FEW250 27/23 A2999 RMK AO2 SLP154 T02720228 $
Traffic Incident Summary
Active as of:
Severity:
Category:
InformationThere was an issue retrieving the traffic information for this location. Please try a different location or try again shortly.
Advertisements